createdAt,value
2018-06-02T00:01:59.075Z,4.68
2018-06-02T00:07:54.117Z,5.11
2018-06-02T00:13:49.092Z,5.26
2018-06-02T00:19:44.098Z,5.75
2018-06-02T00:25:39.094Z,6.52
2018-06-02T00:31:34.140Z,5.61
2018-06-02T00:37:29.144Z,5.18
2018-06-02T00:43:24.099Z,5.46
2018-06-02T00:49:19.135Z,6.55
2018-06-02T00:55:14.103Z,4.5
2018-06-02T01:01:09.121Z,6.91
2018-06-02T01:07:04.128Z,4.71
2018-06-02T01:12:59.141Z,4.96
2018-06-02T01:18:54.141Z,5.03
2018-06-02T01:24:49.115Z,5.3
2018-06-02T01:30:44.114Z,6.06
2018-06-02T01:36:39.133Z,5.53
2018-06-02T01:42:34.134Z,5.38
2018-06-02T01:48:29.141Z,5.69
2018-06-02T01:54:24.136Z,5.37
2018-06-02T02:00:19.122Z,4.87
2018-06-02T02:06:14.120Z,5.13
2018-06-02T02:12:09.142Z,4.98
2018-06-02T02:18:04.153Z,5.64
2018-06-02T02:23:59.156Z,5.94
2018-06-02T02:29:54.210Z,7.03
2018-06-02T02:35:49.148Z,6.76
2018-06-02T02:41:44.122Z,6.49
2018-06-02T02:47:39.178Z,6.6
2018-06-02T02:53:34.192Z,6.38
2018-06-02T02:59:29.168Z,7.25
2018-06-02T03:05:24.162Z,7.47
2018-06-02T03:11:19.168Z,6.45
2018-06-02T03:17:14.157Z,5.63
2018-06-02T03:23:09.155Z,5.96
2018-06-02T03:29:04.146Z,5.58
2018-06-02T03:34:59.156Z,5.29
2018-06-02T03:40:54.207Z,5.47
2018-06-02T03:46:49.186Z,4.89
2018-06-02T03:52:44.178Z,5.21
2018-06-02T03:58:39.153Z,4.86
2018-06-02T04:04:34.165Z,6.25
2018-06-02T04:10:29.180Z,5.71
2018-06-02T04:16:24.219Z,6.2
2018-06-02T04:22:19.184Z,6.2
2018-06-02T04:28:14.212Z,6.86
2018-06-02T04:34:09.196Z,7.03
2018-06-02T04:40:04.183Z,7.17
2018-06-02T04:45:59.165Z,6.43
2018-06-02T04:51:54.222Z,6.79
2018-06-02T04:57:49.198Z,6.19
2018-06-02T05:03:44.204Z,7.07
2018-06-02T05:09:39.178Z,6.32
2018-06-02T05:15:34.212Z,6.15
2018-06-02T05:21:29.195Z,7.28
2018-06-02T05:27:24.189Z,7.33
2018-06-02T05:33:19.203Z,6.24
2018-06-02T05:39:14.192Z,7.24
2018-06-02T05:45:09.225Z,6.77
2018-06-02T05:51:04.191Z,7.9
2018-06-02T05:56:59.264Z,8.16
2018-06-02T06:02:54.300Z,7.53
2018-06-02T06:08:49.203Z,7.46
2018-06-02T06:14:44.226Z,7.68
2018-06-02T06:20:39.195Z,9.23
2018-06-02T06:26:34.258Z,14.28
2018-06-02T06:32:29.304Z,19.67
2018-06-02T06:38:24.222Z,18.28
2018-06-02T06:44:19.237Z,14
2018-06-02T06:50:14.239Z,9.53
2018-06-02T06:56:09.227Z,8.64
2018-06-02T07:02:04.255Z,8.32
2018-06-02T07:07:59.267Z,7.39
2018-06-02T07:13:54.223Z,7.38
2018-06-02T07:19:49.283Z,10.85
2018-06-02T07:25:44.224Z,10.52
2018-06-02T07:31:39.255Z,7.63
2018-06-02T07:37:34.268Z,8.32
2018-06-02T07:43:29.235Z,8.05
2018-06-02T07:49:24.267Z,13.24
2018-06-02T07:55:19.278Z,15.29
2018-06-02T08:01:14.350Z,10
2018-06-02T08:07:09.304Z,26.53
2018-06-02T08:13:04.289Z,27.08
2018-06-02T08:18:59.269Z,23.93
2018-06-02T08:24:54.273Z,7.43
2018-06-02T08:30:49.260Z,6.44
2018-06-02T08:36:44.284Z,6.57
2018-06-02T08:42:39.257Z,6.82
2018-06-02T08:48:34.301Z,6.37
2018-06-02T08:54:29.354Z,5.98
2018-06-02T09:00:24.285Z,6.03
2018-06-02T09:06:19.265Z,6.4
2018-06-02T09:12:14.296Z,6.56
2018-06-02T09:18:09.299Z,6.57
2018-06-02T09:24:04.304Z,7.17
2018-06-02T09:29:59.284Z,6.45
2018-06-02T09:35:54.312Z,6.24
2018-06-02T09:41:49.324Z,7.44
2018-06-02T09:47:44.402Z,7.33
2018-06-02T09:53:39.280Z,6.85
2018-06-02T09:59:34.302Z,6.13
2018-06-02T10:05:29.297Z,6.43
2018-06-02T10:11:24.338Z,6.11
2018-06-02T10:17:19.283Z,5.57
2018-06-02T10:23:14.288Z,6.08
2018-06-02T10:29:09.312Z,5.61
2018-06-02T10:35:04.309Z,5.01
2018-06-02T10:40:59.298Z,5.92
2018-06-02T10:46:54.359Z,6.14
2018-06-02T10:52:49.292Z,5.1
2018-06-02T10:58:44.306Z,5.31
2018-06-02T11:04:39.411Z,5.38
2018-06-02T11:10:34.354Z,5.2
2018-06-02T11:16:29.324Z,5.82
2018-06-02T11:22:24.290Z,5.16
2018-06-02T11:28:19.306Z,4.83
2018-06-02T11:34:14.332Z,4.74
2018-06-02T11:40:09.370Z,4.16
2018-06-02T11:46:04.317Z,4.21
2018-06-02T11:51:59.308Z,3.95
2018-06-02T11:57:54.333Z,3.97
2018-06-02T12:03:49.355Z,4.12
2018-06-02T12:09:44.331Z,3.63
2018-06-02T12:15:39.340Z,3.93
2018-06-02T12:21:34.325Z,4.38
2018-06-02T12:27:29.349Z,3.67
2018-06-02T12:33:24.398Z,3.71
2018-06-02T12:39:19.383Z,3.11
2018-06-02T12:45:14.366Z,3.34
2018-06-02T12:51:09.375Z,3.33
2018-06-02T12:57:04.406Z,3.19
2018-06-02T13:02:59.366Z,3.18
2018-06-02T13:08:54.410Z,3.04
2018-06-02T13:14:49.386Z,3.39
2018-06-02T13:20:44.388Z,2.57
2018-06-02T13:26:39.366Z,2.83
2018-06-02T13:32:34.400Z,3.13
2018-06-02T13:38:29.457Z,2.86
2018-06-02T13:44:24.399Z,2.6
2018-06-02T13:50:19.398Z,2.62
2018-06-02T13:56:14.396Z,2.56
2018-06-02T14:02:09.422Z,2.76
2018-06-02T14:08:04.452Z,2.73
2018-06-02T14:13:59.395Z,2.79
2018-06-02T14:19:54.456Z,3.01
2018-06-02T14:25:49.394Z,2.5
2018-06-02T14:31:44.420Z,2.78
2018-06-02T14:37:39.426Z,2.5
2018-06-02T14:43:34.450Z,2.89
2018-06-02T14:49:29.489Z,3
2018-06-02T14:55:24.450Z,2.58
2018-06-02T15:01:19.454Z,2.33
2018-06-02T15:07:14.443Z,2.61
2018-06-02T15:13:09.467Z,2.42
2018-06-02T15:19:04.441Z,2.86
2018-06-02T15:24:59.449Z,2.63
2018-06-02T15:30:54.396Z,2.53
2018-06-02T15:36:49.420Z,2.64
2018-06-02T15:42:44.464Z,2.17
2018-06-02T15:48:39.442Z,2.49
2018-06-02T15:54:34.465Z,2.12
2018-06-02T16:00:29.450Z,2.28
2018-06-02T16:06:24.461Z,2.12
2018-06-02T16:12:19.436Z,2.16
2018-06-02T16:18:14.455Z,2.23
2018-06-02T16:24:09.508Z,1.7
2018-06-02T16:30:04.524Z,1.96
2018-06-02T16:35:59.423Z,1.88
2018-06-02T16:41:54.444Z,1.88
2018-06-02T16:47:49.484Z,2.08
2018-06-02T16:53:44.472Z,1.96
2018-06-02T16:59:39.468Z,1.77
2018-06-02T17:05:34.515Z,1.76
2018-06-02T17:11:29.472Z,2.01
2018-06-02T17:17:24.501Z,1.71
2018-06-02T17:23:19.479Z,1.75
2018-06-02T17:29:14.486Z,2.11
2018-06-02T17:35:09.560Z,1.82
2018-06-02T17:41:04.471Z,2.42
2018-06-02T17:46:59.520Z,2.26
2018-06-02T17:52:54.484Z,2.63
2018-06-02T17:58:49.485Z,3.06
2018-06-02T18:04:44.478Z,2.58
2018-06-02T18:10:39.477Z,3.23
2018-06-02T18:16:34.494Z,3.19
2018-06-02T18:22:29.538Z,3.52
2018-06-02T18:28:24.472Z,3.49
2018-06-02T18:34:19.525Z,3.52
2018-06-02T18:40:14.513Z,3.46
2018-06-02T18:46:09.512Z,3.65
2018-06-02T18:52:04.562Z,2.88
2018-06-02T18:57:59.498Z,3.06
2018-06-02T19:03:54.529Z,2.47
2018-06-02T19:09:49.583Z,2.68
2018-06-02T19:15:44.531Z,2.29
2018-06-02T19:21:39.527Z,3.19
2018-06-02T19:27:34.493Z,2.44
2018-06-02T19:33:29.511Z,2.59
2018-06-02T19:39:24.572Z,2.74
2018-06-02T19:45:19.514Z,2.45
2018-06-02T19:51:14.549Z,2.72
2018-06-02T19:57:09.557Z,3.35
2018-06-02T20:03:04.542Z,3.52
2018-06-02T20:08:59.543Z,4.13
2018-06-02T20:14:54.649Z,4.13
2018-06-02T20:20:49.523Z,3.44
2018-06-02T20:26:44.563Z,3.19
2018-06-02T20:32:39.531Z,2.99
2018-06-02T20:38:34.534Z,3.03
2018-06-02T20:44:29.537Z,2.98
2018-06-02T20:50:24.586Z,2.69
2018-06-02T20:56:19.568Z,2.87
2018-06-02T21:02:14.851Z,2.96
2018-06-02T21:08:09.585Z,2.89
2018-06-02T21:14:04.530Z,2.7
2018-06-02T21:19:59.641Z,3.28
2018-06-02T21:25:54.537Z,2.59
2018-06-02T21:31:49.563Z,2.8
2018-06-02T21:37:44.549Z,2.4
2018-06-02T21:43:39.558Z,2.29
2018-06-02T21:49:34.583Z,2.53
2018-06-02T21:55:29.609Z,2.62
2018-06-02T22:01:24.554Z,2.61
2018-06-02T22:07:19.539Z,2.81
2018-06-02T22:13:14.596Z,2.67
2018-06-02T22:19:09.589Z,2.4
2018-06-02T22:25:04.603Z,2.74
2018-06-02T22:30:59.613Z,2.51
2018-06-02T22:36:54.562Z,2.14
2018-06-02T22:42:49.633Z,2.48
2018-06-02T22:48:44.620Z,2.08
2018-06-02T22:54:39.608Z,2.47
2018-06-02T23:00:34.586Z,2.47
2018-06-02T23:06:29.609Z,2.54
2018-06-02T23:12:24.564Z,1.86
2018-06-02T23:18:19.673Z,2
2018-06-02T23:24:14.608Z,2.03
2018-06-02T23:30:09.601Z,2.19
2018-06-02T23:36:04.590Z,2.78
2018-06-02T23:41:59.597Z,2.92
2018-06-02T23:47:54.579Z,2.98
2018-06-02T23:53:49.605Z,2.67
